Accueil
METAR-TAF:

METAR-TAF

Aéroports :

Wunstorf, Allemagne

latitude: 52-27N, longitude: 009-26E, altitude: 57 m

Observation

Le bulletin a été fait il y a 54 minutes, à 18:20 UTC
Vent 6 kt de nord
Température 21°C
Humidité 49%
Pression 1019 hPa
Visibilité: 5000 m

METAR: ETNW 151820Z AUTO 01006KT 5000 // ////// 21/10 Q1019 ///

Heure: 21:14 (19:14 UTC)

Prévision

Le bulletin a été fait il y a 9 heures et 14 minutes, à 10:00 UTC
Prévision valable du 15 à 11 UTC au 16 à 11 UTC
Vent 5 kt de nord
Visibilité 10 km ou plus
Quelques nuages à une hauteur de 2000 ft
Nuages fragmentés à une hauteur de 20000 ft
Evoluant progressivement
du 16 à 04 UTC au 16 à 06 UTC
Vent 8 kt de est
Visibilité 10 km ou plus
Nuages épars à une hauteur de 30000 ft

TAF: ETNW 151000Z 1511/1611 35005KT 9999 NSW FEW020 BKN200 BECMG 1604/1606 09008KT 9999 NSW SCT300 BY ETGL

Observations et prévisions météorologiques de plus de 4000 aéroports (messages METAR et TAF).

Les stations disponibles sont représentées par des disques jaunes et rouges sur la carte.

Passer la souris dessus pour voir le nom de la station.

Cliquer dessus pour voir les observations et prévisions météorologiques.

Pour changer de carte: cliquez sur les boutons verts avec une croix noire pour zoomer, sur le bouton vert avec un tiret pour effectuer un zoom arrière, ou sur les flèches vertes pour les cartes adjacentes.


METAR-TAF: